Time;durP1;ratioP1;P1;durP2;ratioP2;P2;SDS_P1;SDS_P2;PMS_P1;PMS_P2;Temp;Humidity;BMP_temperature;BMP_pressure;BME280_temperature;BME280_humidity;BME280_pressure;Samples;Min_cycle;Max_cycle;Signal;HPM_P1;HPM_P2
2022/03/29 00:00:00;;;;;;;0.70;0.70;;;6.00;99.90;;;;;;5050077;28;20194;-74
2022/03/29 00:02:26;;;;;;;0.70;0.70;;;6.00;59.10;;;;;;5050454;28;20179;-73
2022/03/29 00:04:51;;;;;;;0.70;0.70;;;5.90;78.00;;;;;;5050982;28;20190;-73
2022/03/29 00:07:17;;;;;;;0.70;0.70;;;6.00;99.90;;;;;;5050611;28;20218;-72
2022/03/29 00:09:42;;;;;;;0.80;0.80;;;6.00;99.90;;;;;;5050214;28;20199;-73
2022/03/29 00:12:08;;;;;;;0.70;0.70;;;5.80;99.90;;;;;;5050703;28;20215;-73
2022/03/29 00:14:34;;;;;;;0.70;0.70;;;5.90;99.90;;;;;;5050538;28;20265;-73
2022/03/29 00:16:59;;;;;;;0.77;0.77;;;5.90;99.90;;;;;;5050730;28;20542;-73
2022/03/29 00:19:25;;;;;;;0.77;0.77;;;5.90;99.90;;;;;;5050190;28;20172;-73
2022/03/29 00:21:50;;;;;;;0.70;0.70;;;5.90;97.50;;;;;;5050488;28;20179;-72
2022/03/29 00:24:16;;;;;;;0.70;0.70;;;5.80;72.50;;;;;;5051781;28;20171;-73
2022/03/29 00:26:41;;;;;;;0.70;0.70;;;5.80;45.00;;;;;;5054259;28;20215;-73
2022/03/29 00:29:08;;;;;;;0.87;0.87;;;5.80;99.90;;;;;;5053752;28;20178;-73
2022/03/29 00:31:33;;;;;;;0.80;0.80;;;5.70;99.90;;;;;;5054301;28;20207;-73
2022/03/29 00:33:59;;;;;;;0.63;0.63;;;5.70;99.90;;;;;;5054334;28;20186;-73
2022/03/29 00:36:26;;;;;;;0.70;0.70;;;5.70;99.90;;;;;;5054181;28;20670;-72
2022/03/29 00:38:54;;;;;;;0.70;0.70;;;5.70;99.90;;;;;;5053687;28;20255;-72
2022/03/29 00:41:20;;;;;;;0.77;0.77;;;5.70;99.90;;;;;;5054023;28;20298;-72
2022/03/29 00:43:45;;;;;;;0.77;0.77;;;5.60;99.90;;;;;;5056349;28;20562;-72
2022/03/29 00:46:11;;;;;;;0.80;0.80;;;5.60;99.90;;;;;;5056678;28;20648;-72
2022/03/29 00:48:36;;;;;;;0.80;0.80;;;5.60;99.90;;;;;;5054778;28;20373;-72
2022/03/29 00:51:02;;;;;;;0.80;0.80;;;5.70;1.00;;;;;;5054109;28;20198;-72
2022/03/29 00:53:28;;;;;;;0.70;0.70;;;5.60;1.00;;;;;;5054182;28;20628;-72
2022/03/29 00:55:55;;;;;;;0.87;0.87;;;5.60;1.00;;;;;;5053891;28;20183;-72
2022/03/29 00:58:21;;;;;;;0.70;0.70;;;5.70;99.90;;;;;;5053792;28;20175;-72
2022/03/29 01:00:47;;;;;;;0.80;0.80;;;5.50;99.90;;;;;;5053128;28;20199;-72
2022/03/29 01:03:15;;;;;;;0.80;0.80;;;5.50;99.90;;;;;;5053825;28;20167;-73
2022/03/29 01:05:41;;;;;;;0.60;0.60;;;5.60;99.90;;;;;;5053853;28;20259;-72
2022/03/29 01:08:07;;;;;;;0.77;0.77;;;5.50;99.90;;;;;;5053535;28;20660;-72
2022/03/29 01:10:34;;;;;;;0.80;0.80;;;5.60;99.90;;;;;;5052949;28;20229;-73
2022/03/29 01:12:59;;;;;;;0.70;0.70;;;5.50;1.00;;;;;;5053775;28;20183;-72
2022/03/29 01:15:26;;;;;;;0.70;0.70;;;5.30;99.90;;;;;;5053726;28;20182;-73
2022/03/29 01:17:53;;;;;;;0.77;0.77;;;5.50;1.00;;;;;;5053590;28;20179;-72
2022/03/29 01:20:25;;;;;;;0.80;0.80;;;5.30;1.00;;;;;;5052864;28;20683;-72
2022/03/29 01:22:52;;;;;;;0.77;0.77;;;5.50;1.00;;;;;;5053337;28;20167;-72
2022/03/29 01:25:28;;;;;;;0.80;0.80;;;5.40;1.00;;;;;;5053206;28;20180;-72
2022/03/29 01:27:54;;;;;;;0.80;0.80;;;5.50;1.00;;;;;;5052935;28;20326;-72
2022/03/29 01:30:21;;;;;;;0.73;0.73;;;5.50;1.00;;;;;;5052764;28;20278;-73
2022/03/29 01:32:50;;;;;;;0.70;0.70;;;5.40;1.00;;;;;;5053317;28;20187;-72
2022/03/29 01:35:22;;;;;;;0.70;0.70;;;5.40;1.00;;;;;;5052172;28;20179;-72
2022/03/29 01:37:48;;;;;;;0.77;0.77;;;5.30;1.00;;;;;;5052936;28;20182;-72
2022/03/29 01:40:19;;;;;;;0.70;0.70;;;5.50;1.00;;;;;;5052741;28;20290;-72
2022/03/29 01:42:50;;;;;;;0.70;0.70;;;5.50;1.00;;;;;;5053202;28;20236;-72
2022/03/29 01:45:16;;;;;;;0.90;0.90;;;5.50;1.00;;;;;;5052941;28;20202;-71
2022/03/29 01:47:42;;;;;;;0.80;0.80;;;5.40;1.00;;;;;;5053186;28;20230;-72
2022/03/29 01:50:10;;;;;;;0.80;0.80;;;5.30;1.00;;;;;;5052208;28;20222;-72
2022/03/29 01:52:40;;;;;;;0.77;0.77;;;5.30;1.00;;;;;;5053016;28;20186;-72
2022/03/29 01:55:09;;;;;;;0.77;0.77;;;5.40;1.00;;;;;;5053022;28;20267;-72
2022/03/29 01:57:35;;;;;;;0.80;0.80;;;5.30;1.00;;;;;;5052660;28;20644;-72
2022/03/29 02:02:46;;;;;;;0.80;0.80;;;5.30;1.00;;;;;;5053023;28;20221;-72
2022/03/29 02:05:12;;;;;;;0.80;0.80;;;5.30;1.00;;;;;;5052867;28;20203;-73
2022/03/29 02:07:37;;;;;;;0.70;0.70;;;5.20;1.00;;;;;;5052629;28;20298;-72
2022/03/29 02:10:05;;;;;;;0.80;0.80;;;5.20;1.00;;;;;;5052192;28;20195;-72
2022/03/29 02:12:31;;;;;;;0.80;0.80;;;5.30;1.00;;;;;;5052419;28;20529;-72
2022/03/29 02:14:57;;;;;;;0.70;0.70;;;5.20;1.00;;;;;;5052453;28;20175;-72
2022/03/29 02:17:22;;;;;;;0.67;0.67;;;5.20;1.00;;;;;;5052352;28;20658;-73
2022/03/29 02:19:48;;;;;;;0.80;0.80;;;5.20;1.00;;;;;;5052012;28;20202;-72
2022/03/29 02:22:13;;;;;;;0.80;0.80;;;5.10;99.90;;;;;;5052423;28;20187;-72
2022/03/29 02:24:39;;;;;;;0.70;0.70;;;5.10;1.00;;;;;;5052312;28;20203;-73
2022/03/29 02:27:05;;;;;;;0.70;0.70;;;5.00;1.00;;;;;;5052106;28;20293;-72
2022/03/29 02:29:30;;;;;;;0.70;0.70;;;5.00;99.90;;;;;;5051767;28;20189;-72
2022/03/29 02:31:56;;;;;;;0.80;0.80;;;5.10;99.90;;;;;;5052091;28;20670;-72
2022/03/29 02:34:21;;;;;;;0.80;0.80;;;5.10;99.90;;;;;;5052017;28;20178;-72
2022/03/29 02:36:47;;;;;;;0.70;0.70;;;5.10;1.00;;;;;;5052375;28;20183;-72
2022/03/29 02:39:12;;;;;;;0.70;0.70;;;4.90;99.90;;;;;;5051544;28;20182;-72
2022/03/29 02:41:38;;;;;;;0.80;0.80;;;4.90;99.90;;;;;;5051865;28;20215;-72
2022/03/29 02:44:04;;;;;;;0.70;0.70;;;4.90;71.50;;;;;;5051837;28;20186;-72
2022/03/29 02:46:29;;;;;;;0.80;0.80;;;4.90;40.40;;;;;;5051315;28;20194;-72
2022/03/29 02:48:55;;;;;;;0.83;0.83;;;4.80;1.00;;;;;;5051416;28;20202;-72
2022/03/29 02:51:20;;;;;;;0.70;0.70;;;4.90;1.00;;;;;;5051958;28;20233;-72
2022/03/29 02:53:46;;;;;;;0.70;0.70;;;4.70;1.00;;;;;;5051800;28;20182;-72
2022/03/29 02:56:11;;;;;;;0.80;0.80;;;4.70;59.90;;;;;;5051769;28;20167;-72
2022/03/29 02:58:37;;;;;;;0.70;0.70;;;4.80;99.90;;;;;;5051774;28;20179;-72
2022/03/29 03:01:02;;;;;;;0.87;0.87;;;4.90;1.00;;;;;;5053972;28;20660;-72
2022/03/29 03:03:30;;;;;;;0.77;0.77;;;4.80;99.90;;;;;;5055010;28;20178;-72
2022/03/29 03:05:56;;;;;;;0.80;0.80;;;4.60;1.00;;;;;;5053991;28;20179;-72
2022/03/29 03:08:21;;;;;;;0.80;0.80;;;4.80;64.10;;;;;;5051394;28;20297;-72
2022/03/29 03:10:47;;;;;;;0.80;0.80;;;4.80;1.00;;;;;;5050723;28;20569;-72
2022/03/29 03:13:12;;;;;;;0.87;0.87;;;4.80;99.90;;;;;;5061739;28;20167;-72
2022/03/29 03:15:38;;;;;;;0.80;0.80;;;4.70;99.90;;;;;;5070106;28;20163;-71
2022/03/29 03:18:03;;;;;;;0.77;0.77;;;4.70;99.90;;;;;;5066730;28;20550;-71
2022/03/29 03:20:29;;;;;;;0.80;0.80;;;4.70;99.90;;;;;;5059278;28;20593;-72
2022/03/29 03:22:55;;;;;;;0.80;0.80;;;4.70;99.90;;;;;;5057490;28;20644;-72
2022/03/29 03:25:21;;;;;;;0.80;0.80;;;4.80;1.00;;;;;;5055668;28;20245;-71
2022/03/29 03:27:47;;;;;;;0.80;0.80;;;4.80;1.00;;;;;;5053162;28;20699;-72
2022/03/29 03:30:15;;;;;;;0.80;0.80;;;4.70;1.00;;;;;;5054654;28;20195;-72
2022/03/29 03:32:41;;;;;;;0.90;0.90;;;4.70;1.00;;;;;;5054545;28;20214;-71
2022/03/29 03:35:07;;;;;;;0.70;0.70;;;4.80;1.00;;;;;;5051301;28;20167;-71
2022/03/29 03:37:34;;;;;;;0.70;0.70;;;4.90;1.00;;;;;;5051357;28;20668;-71
2022/03/29 03:40:00;;;;;;;0.70;0.70;;;4.90;1.00;;;;;;5050619;28;20191;-73
2022/03/29 03:42:26;;;;;;;0.80;0.80;;;4.90;99.90;;;;;;5051082;28;20186;-72
2022/03/29 03:44:51;;;;;;;0.83;0.83;;;4.90;1.00;;;;;;5050858;28;20171;-72
2022/03/29 03:47:17;;;;;;;0.80;0.80;;;4.80;34.50;;;;;;5051022;28;20210;-71
2022/03/29 03:49:42;;;;;;;0.80;0.80;;;4.90;1.00;;;;;;5050360;28;20191;-73
2022/03/29 03:52:08;;;;;;;0.80;0.80;;;4.80;1.00;;;;;;5050911;28;20554;-72
2022/03/29 03:54:37;;;;;;;0.80;0.80;;;4.90;99.90;;;;;;5050910;28;20667;-72
2022/03/29 03:57:04;;;;;;;0.80;0.80;;;4.90;99.90;;;;;;5050862;28;20178;-72
2022/03/29 03:59:30;;;;;;;0.80;0.80;;;4.60;1.00;;;;;;5051849;28;20175;-72
2022/03/29 04:01:56;;;;;;;0.77;0.77;;;4.70;1.00;;;;;;5055027;28;20265;-73
2022/03/29 04:04:21;;;;;;;0.80;0.80;;;4.60;99.90;;;;;;5079456;22;20239;-80
2022/03/29 04:06:47;;;;;;;0.80;0.80;;;4.40;99.90;;;;;;5056305;28;20215;-79
2022/03/29 04:09:12;;;;;;;0.80;0.80;;;4.30;1.00;;;;;;5056077;28;20179;-78
2022/03/29 04:11:38;;;;;;;0.70;0.70;;;4.30;99.90;;;;;;5056063;28;20241;-78
2022/03/29 04:14:04;;;;;;;0.70;0.70;;;4.40;99.90;;;;;;5056022;28;20197;-80
2022/03/29 04:16:30;;;;;;;0.83;0.83;;;4.30;97.90;;;;;;5056218;28;20206;-79
2022/03/29 04:18:56;;;;;;;0.80;0.80;;;4.50;99.90;;;;;;5056202;28;20179;-76
2022/03/29 04:21:21;;;;;;;0.83;0.83;;;4.50;99.90;;;;;;5055590;28;20202;-75
2022/03/29 04:23:47;;;;;;;0.70;0.70;;;4.40;1.00;;;;;;5055150;28;20185;-77
2022/03/29 04:26:12;;;;;;;0.73;0.73;;;4.40;1.00;;;;;;5055056;28;20183;-77
2022/03/29 04:28:38;;;;;;;0.70;0.70;;;4.00;99.90;;;;;;5054794;28;20230;-77
2022/03/29 04:31:03;;;;;;;0.70;0.70;;;4.10;1.00;;;;;;5054323;28;20218;-77
2022/03/29 04:33:29;;;;;;;0.90;0.90;;;4.20;96.20;;;;;;5054700;28;20186;-76
2022/03/29 04:35:56;;;;;;;0.80;0.80;;;4.20;99.90;;;;;;5054894;28;20261;-76
2022/03/29 04:38:23;;;;;;;0.80;0.80;;;4.40;1.00;;;;;;5055367;28;20512;-77
2022/03/29 04:40:49;;;;;;;0.70;0.70;;;4.40;1.00;;;;;;5054591;28;20576;-76
2022/03/29 04:43:15;;;;;;;0.80;0.80;;;4.20;99.90;;;;;;5054661;28;20172;-77
2022/03/29 04:45:41;;;;;;;0.80;0.80;;;4.20;99.90;;;;;;5054817;28;20179;-77
2022/03/29 04:48:07;;;;;;;0.80;0.80;;;4.30;1.00;;;;;;5054924;28;20757;-76
2022/03/29 04:50:32;;;;;;;0.80;0.80;;;4.20;99.90;;;;;;5054135;28;20857;-76
2022/03/29 04:52:58;;;;;;;0.70;0.70;;;4.30;99.90;;;;;;5054658;28;20175;-75
2022/03/29 04:55:24;;;;;;;0.80;0.80;;;4.30;1.00;;;;;;5054576;28;20550;-76
2022/03/29 04:57:50;;;;;;;0.80;0.80;;;4.30;1.00;;;;;;5054369;28;20175;-77
2022/03/29 05:00:20;;;;;;;0.80;0.80;;;4.10;1.00;;;;;;5054080;28;20191;-77
2022/03/29 05:02:47;;;;;;;0.80;0.80;;;3.70;1.00;;;;;;5054671;28;20174;-76
2022/03/29 05:05:14;;;;;;;0.70;0.70;;;4.00;1.00;;;;;;5054182;28;20810;-77
2022/03/29 05:07:43;;;;;;;0.70;0.70;;;4.20;99.90;;;;;;5054144;28;20252;-76
2022/03/29 05:10:11;;;;;;;0.80;0.80;;;4.00;1.00;;;;;;5053311;28;20570;-77
2022/03/29 05:12:45;;;;;;;0.80;0.80;;;4.00;1.00;;;;;;5054394;28;20241;-77
2022/03/29 05:15:12;;;;;;;0.70;0.70;;;3.90;1.00;;;;;;5054269;28;20180;-76
2022/03/29 05:17:39;;;;;;;0.70;0.70;;;4.30;1.00;;;;;;5054177;28;20190;-76
2022/03/29 05:20:06;;;;;;;0.80;0.80;;;4.10;1.00;;;;;;5053599;28;20210;-77
2022/03/29 05:22:39;;;;;;;0.80;0.80;;;4.00;1.00;;;;;;5053990;28;20182;-76
2022/03/29 05:25:05;;;;;;;0.80;0.80;;;4.00;1.00;;;;;;5054190;28;20236;-76
2022/03/29 05:27:31;;;;;;;0.73;0.73;;;4.00;1.00;;;;;;5054089;28;20219;-77
2022/03/29 05:29:56;;;;;;;0.90;0.90;;;3.80;1.00;;;;;;5053649;28;20746;-77
2022/03/29 05:32:22;;;;;;;0.70;0.70;;;4.10;46.80;;;;;;5054001;28;20190;-77
2022/03/29 05:34:48;;;;;;;0.80;0.80;;;4.40;44.50;;;;;;5053885;28;20190;-76
2022/03/29 05:37:14;;;;;;;0.80;0.80;;;4.30;1.00;;;;;;5053529;28;20206;-77
2022/03/29 05:39:43;;;;;;;0.70;0.70;;;4.30;1.00;;;;;;5053448;28;20179;-76
2022/03/29 05:42:10;;;;;;;0.70;0.70;;;4.40;1.00;;;;;;5053761;28;20189;-77
2022/03/29 05:44:37;;;;;;;0.60;0.60;;;4.50;99.90;;;;;;5053833;28;20175;-77
2022/03/29 05:49:47;;;;;;;0.80;0.80;;;4.60;95.60;;;;;;5051981;28;20198;-75
2022/03/29 05:52:13;;;;;;;0.70;0.70;;;4.70;99.90;;;;;;5052940;28;20493;-75
2022/03/29 05:54:40;;;;;;;0.73;0.73;;;4.80;1.00;;;;;;5053463;28;20179;-75
2022/03/29 05:57:06;;;;;;;0.80;0.80;;;5.00;1.00;;;;;;5053084;28;20643;-77
2022/03/29 05:59:32;;;;;;;0.80;0.80;;;5.20;99.90;;;;;;5052307;28;20559;-76
2022/03/29 06:02:04;;;;;;;0.70;0.70;;;5.20;1.00;;;;;;5052963;28;20253;-77
2022/03/29 06:04:33;;;;;;;0.70;0.70;;;5.30;1.00;;;;;;5050206;28;20321;-77
2022/03/29 06:06:59;;;;;;;0.70;0.70;;;5.00;18.70;;;;;;5053280;28;20582;-77
2022/03/29 06:09:25;;;;;;;0.70;0.70;;;5.30;1.00;;;;;;5053170;28;20175;-77
2022/03/29 06:11:51;;;;;;;0.70;0.70;;;5.30;99.90;;;;;;5052494;28;20557;-77
2022/03/29 06:14:17;;;;;;;0.70;0.70;;;5.60;99.90;;;;;;5054898;28;20170;-77
2022/03/29 06:16:43;;;;;;;0.80;0.80;;;5.70;1.00;;;;;;5053424;28;20203;-76
2022/03/29 06:19:10;;;;;;;0.70;0.70;;;5.60;99.90;;;;;;5052673;28;20180;-77
2022/03/29 06:21:37;;;;;;;0.70;0.70;;;5.30;1.00;;;;;;5051279;28;20268;-76
2022/03/29 06:24:04;;;;;;;0.70;0.70;;;5.30;1.00;;;;;;5052486;28;20171;-77
2022/03/29 06:26:30;;;;;;;0.60;0.60;;;5.50;1.00;;;;;;5053400;28;20243;-76
2022/03/29 06:28:56;;;;;;;0.80;0.80;;;5.70;99.90;;;;;;5052366;28;20663;-75
2022/03/29 06:31:22;;;;;;;0.80;0.80;;;5.90;1.00;;;;;;5052614;28;20191;-76
2022/03/29 06:33:48;;;;;;;0.57;0.57;;;5.90;99.90;;;;;;5052932;28;20547;-77
2022/03/29 06:36:14;;;;;;;0.70;0.70;;;6.10;1.00;;;;;;5052965;28;20175;-76
2022/03/29 06:38:39;;;;;;;0.63;0.63;;;6.30;99.90;;;;;;5052113;28;20255;-76
2022/03/29 06:41:05;;;;;;;0.70;0.70;;;6.50;10.40;;;;;;5051756;28;20187;-76
2022/03/29 06:43:30;;;;;;;0.70;0.70;;;6.70;1.00;;;;;;5052589;28;20179;-76
2022/03/29 06:45:56;;;;;;;0.70;0.70;;;6.60;1.00;;;;;;5051955;28;20179;-77
2022/03/29 06:48:23;;;;;;;0.60;0.60;;;6.60;99.90;;;;;;5051933;28;20198;-77
2022/03/29 06:50:48;;;;;;;0.60;0.60;;;6.90;99.90;;;;;;5052290;28;20253;-79
2022/03/29 06:53:14;;;;;;;0.67;0.67;;;6.90;99.90;;;;;;5052642;28;20179;-77
2022/03/29 06:55:39;;;;;;;0.70;0.70;;;6.90;1.00;;;;;;5052267;28;20185;-78
2022/03/29 06:58:05;;;;;;;0.60;0.60;;;7.00;1.00;;;;;;5052623;28;20554;-77
2022/03/29 07:00:31;;;;;;;0.60;0.60;;;7.20;1.00;;;;;;5051817;28;20226;-76
2022/03/29 07:02:56;;;;;;;0.60;0.60;;;7.40;1.00;;;;;;5054175;28;20183;-79
2022/03/29 07:05:22;;;;;;;0.60;0.60;;;7.80;1.00;;;;;;5052247;28;20602;-76
2022/03/29 07:07:48;;;;;;;0.60;0.60;;;7.90;1.00;;;;;;5052169;28;20214;-77
2022/03/29 07:13:02;;;;;;;0.60;0.60;;;7.50;99.90;;;;;;5052514;28;20254;-76
2022/03/29 07:15:28;;;;;;;0.60;0.60;;;7.40;1.00;;;;;;5051538;28;20689;-77
2022/03/29 07:17:56;;;;;;;0.60;0.60;;;7.50;1.00;;;;;;5054968;28;20179;-76
2022/03/29 07:20:22;;;;;;;0.63;0.63;;;7.60;28.00;;;;;;5051325;28;20194;-77
2022/03/29 07:22:50;;;;;;;0.60;0.60;;;7.60;1.00;;;;;;5051959;28;20187;-76
2022/03/29 07:25:20;;;;;;;0.63;0.63;;;7.50;99.90;;;;;;5052181;28;20176;-76
2022/03/29 07:27:47;;;;;;;0.57;0.57;;;7.50;1.00;;;;;;5052080;28;20203;-77
2022/03/29 07:30:13;;;;;;;0.50;0.50;;;7.60;1.00;;;;;;5051383;28;20806;-77
2022/03/29 07:32:47;;;;;;;0.60;0.60;;;7.90;99.90;;;;;;5052398;28;20179;-75
2022/03/29 07:35:15;;;;;;;0.60;0.60;;;8.00;1.00;;;;;;5053171;28;20176;-75
2022/03/29 07:37:41;;;;;;;0.50;0.50;;;8.50;1.00;;;;;;5050503;28;20178;-76
2022/03/29 07:40:08;;;;;;;0.60;0.60;;;8.60;1.00;;;;;;5051148;28;20194;-77
2022/03/29 07:42:35;;;;;;;0.60;0.60;;;8.60;1.00;;;;;;5051557;28;20698;-76
2022/03/29 07:45:05;;;;;;;0.60;0.60;;;8.70;1.00;;;;;;5051754;28;20210;-77
2022/03/29 07:47:32;;;;;;;0.50;0.50;;;9.10;99.90;;;;;;5051662;28;20199;-76
2022/03/29 07:49:57;;;;;;;0.70;0.70;;;9.00;1.00;;;;;;5050928;28;20695;-76
2022/03/29 07:52:23;;;;;;;0.60;0.60;;;8.90;99.90;;;;;;5051560;28;20190;-76
2022/03/29 07:54:49;;;;;;;0.50;0.50;;;9.10;99.90;;;;;;5051341;28;20218;-75
2022/03/29 07:57:14;;;;;;;0.60;0.60;;;9.00;99.90;;;;;;5051779;28;20205;-76
2022/03/29 07:59:40;;;;;;;0.53;0.53;;;9.30;99.90;;;;;;5051036;28;20230;-75
2022/03/29 08:02:06;;;;;;;0.70;0.70;;;9.60;37.00;;;;;;5051535;28;20175;-76
2022/03/29 08:04:32;;;;;;;0.50;0.50;;;10.20;1.00;;;;;;5051452;28;20233;-76
2022/03/29 08:06:59;;;;;;;0.50;0.50;;;10.40;1.00;;;;;;5051329;28;20211;-76
2022/03/29 08:09:26;;;;;;;0.40;0.40;;;10.70;1.00;;;;;;5050706;28;20577;-76
2022/03/29 08:11:52;;;;;;;0.50;0.50;;;11.20;1.00;;;;;;5051759;28;20175;-76
2022/03/29 08:14:18;;;;;;;0.50;0.50;;;11.50;1.00;;;;;;5053842;28;20179;-75
2022/03/29 08:16:44;;;;;;;0.47;0.47;;;11.60;1.00;;;;;;5051104;28;20233;-76
2022/03/29 08:19:09;;;;;;;0.50;0.50;;;11.60;1.00;;;;;;5051207;28;20175;-77
2022/03/29 08:21:50;;;;;;;0.40;0.40;;;11.90;1.00;;;;;;5051542;28;20275;-76
2022/03/29 08:24:24;;;;;;;0.40;0.40;;;12.20;1.00;;;;;;5051846;28;20190;-77
2022/03/29 08:26:52;;;;;;;0.33;0.33;;;12.20;1.00;;;;;;5051257;28;20179;-76
2022/03/29 08:29:19;;;;;;;0.40;0.40;;;12.50;1.00;;;;;;5050688;28;20183;-76
2022/03/29 08:31:47;;;;;;;0.30;0.30;;;13.20;1.00;;;;;;5051179;28;20199;-77
2022/03/29 08:34:13;;;;;;;0.30;0.30;;;13.60;1.00;;;;;;5051529;28;20357;-77
2022/03/29 08:36:39;;;;;;;0.30;0.30;;;14.10;1.00;;;;;;5051342;28;20176;-76
2022/03/29 08:39:09;;;;;;;0.30;0.30;;;14.10;1.00;;;;;;5051077;28;20198;-77
2022/03/29 08:41:44;;;;;;;0.47;0.47;;;14.10;1.00;;;;;;5052244;28;20245;-77
2022/03/29 08:44:10;;;;;;;0.30;0.30;;;13.60;1.00;;;;;;5051408;28;20186;-76
2022/03/29 08:46:38;;;;;;;0.30;0.30;;;13.50;1.00;;;;;;5054652;28;20655;-77
2022/03/29 08:49:06;;;;;;;0.33;0.33;;;13.20;1.00;;;;;;5054153;28;20183;-77
2022/03/29 08:51:32;;;;;;;0.40;0.40;;;13.10;1.00;;;;;;5055365;28;20199;-76
2022/03/29 08:53:58;;;;;;;0.40;0.40;;;12.70;1.00;;;;;;5054696;28;20614;-76
2022/03/29 08:56:24;;;;;;;0.50;0.50;;;12.60;1.00;;;;;;5055677;28;20187;-77
2022/03/29 08:58:50;;;;;;;0.40;0.40;;;12.70;1.00;;;;;;5055226;28;20175;-77
2022/03/29 09:01:19;;;;;;;0.40;0.40;;;12.80;1.00;;;;;;5055281;28;20195;-78
2022/03/29 09:04:04;;;;;;;0.40;0.40;;;13.10;1.00;;;;;;5054950;28;20190;-76
2022/03/29 09:06:30;;;;;;;0.30;0.30;;;13.10;1.00;;;;;;5054701;28;20175;-77
2022/03/29 09:08:56;;;;;;;0.43;0.43;;;12.90;1.00;;;;;;5053815;28;20222;-76
2022/03/29 09:11:22;;;;;;;0.40;0.40;;;13.40;1.00;;;;;;5054323;28;20264;-76
2022/03/29 09:14:04;;;;;;;0.43;0.43;;;14.40;1.00;;;;;;5054627;28;20833;-75
2022/03/29 09:16:34;;;;;;;0.40;0.40;;;14.50;1.00;;;;;;5054425;28;20217;-75
2022/03/29 09:19:00;;;;;;;0.40;0.40;;;14.90;1.00;;;;;;5053315;28;20696;-76
2022/03/29 09:21:27;;;;;;;0.30;0.30;;;14.90;1.00;;;;;;5053712;28;20290;-76
2022/03/29 09:24:11;;;;;;;0.30;0.30;;;15.30;1.00;;;;;;5054100;28;20179;-75
2022/03/29 09:26:41;;;;;;;0.30;0.30;;;15.70;1.00;;;;;;5053883;28;20716;-75
2022/03/29 09:29:16;;;;;;;0.40;0.40;;;15.50;1.00;;;;;;5053642;28;20179;-76
2022/03/29 09:31:42;;;;;;;0.40;0.40;;;14.60;1.00;;;;;;5054349;28;20605;-78
2022/03/29 09:34:19;;;;;;;0.30;0.30;;;14.20;1.00;;;;;;5056030;28;20171;-77
2022/03/29 09:36:48;;;;;;;0.30;0.30;;;14.20;1.00;;;;;;5055878;28;20551;-77
2022/03/29 09:39:50;;;;;;;0.40;0.40;;;14.40;1.00;;;;;;5054049;28;20270;-77
2022/03/29 09:42:17;;;;;;;0.40;0.40;;;14.60;1.00;;;;;;5031680;28;20225;-77
2022/03/29 09:44:51;;;;;;;0.33;0.33;;;14.90;1.00;;;;;;5051361;28;20237;-77
2022/03/29 09:47:20;;;;;;;0.40;0.40;;;15.50;1.00;;;;;;5055109;28;20225;-77
2022/03/29 09:49:48;;;;;;;0.40;0.40;;;15.90;1.00;;;;;;5055594;28;20203;-77
2022/03/29 09:52:19;;;;;;;0.30;0.30;;;16.40;1.00;;;;;;5055938;28;20186;-76
2022/03/29 09:55:03;;;;;;;0.33;0.33;;;16.70;1.00;;;;;;5056885;28;20262;-78
2022/03/29 09:57:52;;;;;;;0.30;0.30;;;16.80;1.00;;;;;;5054729;28;20168;-78
2022/03/29 10:00:38;;;;;;;0.30;0.30;;;17.40;1.00;;;;;;5056096;28;20228;-78
2022/03/29 10:03:08;;;;;;;0.30;0.30;;;17.50;1.00;;;;;;5056599;28;20179;-78
2022/03/29 10:05:35;;;;;;;0.30;0.30;;;17.30;1.00;;;;;;5058192;28;20198;-78
2022/03/29 10:10:49;;;;;;;0.30;0.30;;;17.60;1.00;;;;;;5055087;28;20232;-78
2022/03/29 10:13:17;;;;;;;0.30;0.30;;;17.80;1.00;;;;;;5056946;28;20211;-78
2022/03/29 10:15:45;;;;;;;0.30;0.30;;;18.00;1.00;;;;;;5056374;28;20177;-79
2022/03/29 10:18:11;;;;;;;0.30;0.30;;;18.20;1.00;;;;;;5059353;28;20183;-77
2022/03/29 10:20:36;;;;;;;0.30;0.30;;;18.00;1.00;;;;;;5057670;28;20233;-78
2022/03/29 10:23:03;;;;;;;0.30;0.30;;;17.50;1.00;;;;;;5057894;28;20660;-78
2022/03/29 10:25:29;;;;;;;0.30;0.30;;;17.60;1.00;;;;;;5059889;28;20174;-78
2022/03/29 10:27:57;;;;;;;0.30;0.30;;;18.00;1.00;;;;;;5061461;28;20275;-76
2022/03/29 10:30:37;;;;;;;0.30;0.30;;;17.80;1.00;;;;;;5060484;28;20214;-80
2022/03/29 10:33:19;;;;;;;0.30;0.30;;;17.80;1.00;;;;;;5055421;28;20171;-79
2022/03/29 10:36:09;;;;;;;0.30;0.30;;;17.60;1.00;;;;;;5063653;28;20179;-79
2022/03/29 10:38:47;;;;;;;0.40;0.40;;;17.60;1.00;;;;;;5054832;28;20175;-76
2022/03/29 10:41:32;;;;;;;0.30;0.30;;;17.80;1.00;;;;;;5053183;28;20207;-77
2022/03/29 10:44:04;;;;;;;0.30;0.30;;;18.30;1.00;;;;;;5047439;28;20178;-77
2022/03/29 10:46:39;;;;;;;0.40;0.40;;;18.40;1.00;;;;;;5053090;28;20176;-77
2022/03/29 10:49:24;;;;;;;0.40;0.40;;;18.30;1.00;;;;;;5034421;28;20187;-78
2022/03/29 10:52:16;;;;;;;0.30;0.30;;;18.00;1.00;;;;;;5040237;28;20159;-79
2022/03/29 10:54:42;;;;;;;0.30;0.30;;;17.90;1.00;;;;;;5037064;28;20180;-77
2022/03/29 10:57:24;;;;;;;0.30;0.30;;;17.80;1.00;;;;;;5034994;28;20532;-78
2022/03/29 10:59:51;;;;;;;0.40;0.40;;;17.60;1.00;;;;;;5033761;28;20564;-78
2022/03/29 11:02:20;;;;;;;0.40;0.40;;;17.60;1.00;;;;;;5035271;28;20202;-77
2022/03/29 11:05:04;;;;;;;0.40;0.40;;;17.70;1.00;;;;;;5034839;28;20187;-77
2022/03/29 11:07:53;;;;;;;0.40;0.40;;;17.60;1.00;;;;;;5033732;28;20269;-77
2022/03/29 11:10:37;;;;;;;0.30;0.30;;;17.60;1.00;;;;;;5024093;28;20235;-79
2022/03/29 11:13:21;;;;;;;0.30;0.30;;;17.70;1.00;;;;;;5036252;28;20176;-78
2022/03/29 11:15:48;;;;;;;0.30;0.30;;;18.00;1.00;;;;;;5033661;28;20228;-77
2022/03/29 11:18:35;;;;;;;0.30;0.30;;;18.30;1.00;;;;;;5034434;28;20717;-77
2022/03/29 11:21:02;;;;;;;0.30;0.30;;;18.40;1.00;;;;;;5033765;28;20261;-79
2022/03/29 11:23:34;;;;;;;0.33;0.33;;;18.40;1.00;;;;;;5035268;28;20172;-77
2022/03/29 11:26:12;;;;;;;0.30;0.30;;;18.50;1.00;;;;;;5040809;28;20180;-77
2022/03/29 11:28:47;;;;;;;0.30;0.30;;;18.60;1.00;;;;;;5042410;28;20218;-77
2022/03/29 11:31:13;;;;;;;0.30;0.30;;;18.50;1.00;;;;;;5037135;28;20191;-78
2022/03/29 11:33:39;;;;;;;0.30;0.30;;;18.60;1.00;;;;;;5035593;28;20650;-77
2022/03/29 11:36:06;;;;;;;0.30;0.30;;;18.80;1.00;;;;;;5036283;28;20179;-79
2022/03/29 11:38:33;;;;;;;0.30;0.30;;;19.10;1.00;;;;;;5035169;28;20187;-79
2022/03/29 11:41:00;;;;;;;0.30;0.30;;;19.80;1.00;;;;;;5041330;28;20222;-79
2022/03/29 11:43:26;;;;;;;0.20;0.20;;;19.80;1.00;;;;;;5039886;28;20214;-80
2022/03/29 11:45:53;;;;;;;0.30;0.30;;;20.00;1.00;;;;;;5038635;28;20180;-79
2022/03/29 11:48:20;;;;;;;0.30;0.30;;;19.60;1.00;;;;;;5040538;28;20207;-78
2022/03/29 11:50:52;;;;;;;0.30;0.30;;;19.90;1.00;;;;;;5038003;28;20200;-79
2022/03/29 11:53:35;;;;;;;0.30;0.30;;;20.00;1.00;;;;;;5041544;28;20176;-79
2022/03/29 11:56:09;;;;;;;0.30;0.30;;;20.30;1.00;;;;;;5039237;28;20180;-78
2022/03/29 11:58:36;;;;;;;0.30;0.30;;;20.10;1.00;;;;;;5038917;28;20228;-79
2022/03/29 12:01:10;;;;;;;0.30;0.30;;;19.80;1.00;;;;;;5039179;28;20200;-79
2022/03/29 12:03:38;;;;;;;0.30;0.30;;;19.70;1.00;;;;;;5049506;28;20193;-80
2022/03/29 12:06:06;;;;;;;0.30;0.30;;;19.80;1.00;;;;;;5058349;28;20605;-79
2022/03/29 12:09:01;;;;;;;0.30;0.30;;;19.70;1.00;;;;;;5061385;28;20270;-79
2022/03/29 12:11:39;;;;;;;0.20;0.20;;;19.80;1.00;;;;;;5021748;28;20208;-78
2022/03/29 12:14:10;;;;;;;0.30;0.30;;;19.60;1.00;;;;;;5040001;28;20175;-77
2022/03/29 12:16:44;;;;;;;0.40;0.40;;;20.20;1.00;;;;;;5040058;28;20172;-79
2022/03/29 12:19:15;;;;;;;0.30;0.30;;;20.70;1.00;;;;;;5057684;28;20184;-78
2022/03/29 12:21:44;;;;;;;0.40;0.40;;;20.70;1.00;;;;;;5062211;28;20194;-79
2022/03/29 12:24:11;;;;;;;0.20;0.20;;;20.80;1.00;;;;;;5063683;28;20629;-78
2022/03/29 12:26:41;;;;;;;0.30;0.30;;;20.40;1.00;;;;;;5061463;28;20187;-79
2022/03/29 12:29:10;;;;;;;0.30;0.30;;;20.70;1.00;;;;;;5059626;28;20197;-78
2022/03/29 12:31:37;;;;;;;0.30;0.30;;;20.70;1.00;;;;;;5058433;28;20230;-79
2022/03/29 12:34:04;;;;;;;0.30;0.30;;;20.10;1.00;;;;;;5058154;28;20582;-77
2022/03/29 12:36:29;;;;;;;0.30;0.30;;;20.40;1.00;;;;;;5057445;28;20587;-79
2022/03/29 12:39:01;;;;;;;0.30;0.30;;;20.40;1.00;;;;;;5057028;28;20175;-79
2022/03/29 12:41:42;;;;;;;0.30;0.30;;;20.40;1.00;;;;;;5056371;28;20242;-78
2022/03/29 12:44:10;;;;;;;0.30;0.30;;;20.10;1.00;;;;;;5055883;28;20179;-78
2022/03/29 12:46:38;;;;;;;0.30;0.30;;;20.10;1.00;;;;;;5056842;28;20186;-80
2022/03/29 12:49:04;;;;;;;0.30;0.30;;;20.10;1.00;;;;;;5057721;28;20211;-78
2022/03/29 12:51:35;;;;;;;0.30;0.30;;;20.10;1.00;;;;;;5055861;28;20666;-78
2022/03/29 12:54:10;;;;;;;0.30;0.30;;;20.20;1.00;;;;;;5055931;28;20662;-78
2022/03/29 12:56:46;;;;;;;0.30;0.30;;;20.00;1.00;;;;;;5057588;28;20178;-80
2022/03/29 12:59:46;;;;;;;0.30;0.30;;;19.60;1.00;;;;;;5056509;28;20548;-78
2022/03/29 13:02:25;;;;;;;0.30;0.30;;;19.70;1.00;;;;;;5054803;28;20663;-79
2022/03/29 13:04:53;;;;;;;0.30;0.30;;;19.40;1.00;;;;;;5056477;28;20210;-78
2022/03/29 13:07:41;;;;;;;0.30;0.30;;;19.40;1.00;;;;;;5056351;28;20382;-79
2022/03/29 13:10:18;;;;;;;0.30;0.30;;;19.10;1.00;;;;;;5054917;28;20219;-78
2022/03/29 13:13:05;;;;;;;0.30;0.30;;;19.10;1.00;;;;;;5057176;28;20210;-79
2022/03/29 13:15:50;;;;;;;0.40;0.40;;;19.10;1.00;;;;;;5056641;28;20179;-78
2022/03/29 13:18:23;;;;;;;0.30;0.30;;;19.00;1.00;;;;;;5054873;28;20171;-77